sensor_id;sensor_type;location;lat;lon;timestamp;P1;durP1;ratioP1;P2;durP2;ratioP2
64678;SDS011;51094;53.864;27.676;2023-02-01T00:01:57;0.80;;;0.80;;
64678;SDS011;51094;53.864;27.676;2023-02-01T00:04:24;1.20;;;1.20;;
64678;SDS011;51094;53.864;27.676;2023-02-01T00:06:51;1.00;;;1.00;;
64678;SDS011;51094;53.864;27.676;2023-02-01T00:09:18;1.10;;;1.10;;
64678;SDS011;51094;53.864;27.676;2023-02-01T00:11:45;1.00;;;1.00;;
64678;SDS011;51094;53.864;27.676;2023-02-01T00:14:12;1.17;;;1.17;;
64678;SDS011;51094;53.864;27.676;2023-02-01T00:16:41;1.02;;;1.02;;
64678;SDS011;51094;53.864;27.676;2023-02-01T00:19:12;0.90;;;0.90;;
64678;SDS011;51094;53.864;27.676;2023-02-01T00:21:40;0.93;;;0.93;;
64678;SDS011;51094;53.864;27.676;2023-02-01T00:24:08;1.10;;;1.10;;
64678;SDS011;51094;53.864;27.676;2023-02-01T00:26:37;1.10;;;1.10;;
64678;SDS011;51094;53.864;27.676;2023-02-01T00:29:07;0.90;;;0.90;;
64678;SDS011;51094;53.864;27.676;2023-02-01T00:31:38;1.00;;;1.00;;
64678;SDS011;51094;53.864;27.676;2023-02-01T00:34:05;1.38;;;1.38;;
64678;SDS011;51094;53.864;27.676;2023-02-01T00:36:32;1.30;;;1.30;;
64678;SDS011;51094;53.864;27.676;2023-02-01T00:38:59;1.17;;;1.17;;
64678;SDS011;51094;53.864;27.676;2023-02-01T00:41:26;1.30;;;1.30;;
64678;SDS011;51094;53.864;27.676;2023-02-01T00:43:53;1.20;;;1.20;;
64678;SDS011;51094;53.864;27.676;2023-02-01T00:46:23;1.10;;;1.10;;
64678;SDS011;51094;53.864;27.676;2023-02-01T00:48:56;0.90;;;0.90;;
64678;SDS011;51094;53.864;27.676;2023-02-01T00:51:45;1.00;;;1.00;;
64678;SDS011;51094;53.864;27.676;2023-02-01T00:54:12;1.13;;;1.13;;
64678;SDS011;51094;53.864;27.676;2023-02-01T00:56:41;1.40;;;1.40;;
64678;SDS011;51094;53.864;27.676;2023-02-01T00:59:25;1.02;;;1.02;;
64678;SDS011;51094;53.864;27.676;2023-02-01T01:01:56;1.27;;;1.27;;
64678;SDS011;51094;53.864;27.676;2023-02-01T01:04:22;1.00;;;1.00;;
64678;SDS011;51094;53.864;27.676;2023-02-01T01:06:49;1.23;;;1.23;;
64678;SDS011;51094;53.864;27.676;2023-02-01T01:09:16;1.50;;;1.40;;
64678;SDS011;51094;53.864;27.676;2023-02-01T01:11:42;1.08;;;1.08;;
64678;SDS011;51094;53.864;27.676;2023-02-01T01:14:09;1.10;;;1.10;;
64678;SDS011;51094;53.864;27.676;2023-02-01T01:16:37;1.20;;;1.20;;
64678;SDS011;51094;53.864;27.676;2023-02-01T01:19:04;1.05;;;1.05;;
64678;SDS011;51094;53.864;27.676;2023-02-01T01:21:31;1.10;;;1.10;;
64678;SDS011;51094;53.864;27.676;2023-02-01T01:23:59;1.00;;;1.00;;
64678;SDS011;51094;53.864;27.676;2023-02-01T01:26:26;1.20;;;1.20;;
64678;SDS011;51094;53.864;27.676;2023-02-01T01:28:55;1.30;;;1.30;;
64678;SDS011;51094;53.864;27.676;2023-02-01T01:31:23;1.20;;;1.20;;
64678;SDS011;51094;53.864;27.676;2023-02-01T01:33:51;1.02;;;1.02;;
64678;SDS011;51094;53.864;27.676;2023-02-01T01:36:20;1.33;;;1.33;;
64678;SDS011;51094;53.864;27.676;2023-02-01T01:38:47;1.23;;;1.23;;
64678;SDS011;51094;53.864;27.676;2023-02-01T01:41:21;1.20;;;1.20;;
64678;SDS011;51094;53.864;27.676;2023-02-01T01:44:01;1.40;;;1.40;;
64678;SDS011;51094;53.864;27.676;2023-02-01T01:46:37;1.30;;;1.30;;
64678;SDS011;51094;53.864;27.676;2023-02-01T01:49:08;1.20;;;1.20;;
64678;SDS011;51094;53.864;27.676;2023-02-01T01:51:43;1.40;;;1.40;;
64678;SDS011;51094;53.864;27.676;2023-02-01T01:54:15;1.40;;;1.30;;
64678;SDS011;51094;53.864;27.676;2023-02-01T01:56:48;1.40;;;1.40;;
64678;SDS011;51094;53.864;27.676;2023-02-01T01:59:19;1.70;;;1.70;;
64678;SDS011;51094;53.864;27.676;2023-02-01T02:01:48;1.67;;;1.58;;
64678;SDS011;51094;53.864;27.676;2023-02-01T02:04:16;1.48;;;1.48;;
64678;SDS011;51094;53.864;27.676;2023-02-01T02:06:45;1.58;;;1.55;;
64678;SDS011;51094;53.864;27.676;2023-02-01T02:09:16;1.30;;;1.30;;
64678;SDS011;51094;53.864;27.676;2023-02-01T02:11:43;1.30;;;1.30;;
64678;SDS011;51094;53.864;27.676;2023-02-01T02:14:11;1.58;;;1.58;;
64678;SDS011;51094;53.864;27.676;2023-02-01T02:28:12;1.25;;;1.25;;
64678;SDS011;51094;53.864;27.676;2023-02-01T02:31:12;1.33;;;1.33;;
64678;SDS011;51094;53.864;27.676;2023-02-01T02:36:21;1.50;;;1.50;;
64678;SDS011;51094;53.864;27.676;2023-02-01T02:38:52;1.35;;;1.35;;
64678;SDS011;51094;53.864;27.676;2023-02-01T02:47:29;1.30;;;1.30;;
64678;SDS011;51094;53.864;27.676;2023-02-01T02:50:11;1.50;;;1.45;;
64678;SDS011;51094;53.864;27.676;2023-02-01T02:56:29;1.80;;;1.70;;
64678;SDS011;51094;53.864;27.676;2023-02-01T02:59:15;1.65;;;1.65;;
64678;SDS011;51094;53.864;27.676;2023-02-01T03:02:05;1.88;;;1.88;;
64678;SDS011;51094;53.864;27.676;2023-02-01T03:04:53;1.88;;;1.88;;
64678;SDS011;51094;53.864;27.676;2023-02-01T03:13:11;2.22;;;2.22;;
64678;SDS011;51094;53.864;27.676;2023-02-01T03:18:30;1.40;;;1.40;;
64678;SDS011;51094;53.864;27.676;2023-02-01T03:21:05;1.75;;;1.75;;
64678;SDS011;51094;53.864;27.676;2023-02-01T03:23:36;1.83;;;1.83;;
64678;SDS011;51094;53.864;27.676;2023-02-01T03:26:07;1.80;;;1.70;;
64678;SDS011;51094;53.864;27.676;2023-02-01T03:28:38;1.90;;;1.80;;
64678;SDS011;51094;53.864;27.676;2023-02-01T03:31:11;1.80;;;1.80;;
64678;SDS011;51094;53.864;27.676;2023-02-01T03:33:41;1.60;;;1.60;;
64678;SDS011;51094;53.864;27.676;2023-02-01T03:36:15;3.10;;;3.00;;
64678;SDS011;51094;53.864;27.676;2023-02-01T03:41:39;1.70;;;1.70;;
64678;SDS011;51094;53.864;27.676;2023-02-01T03:44:13;2.00;;;1.90;;
64678;SDS011;51094;53.864;27.676;2023-02-01T03:46:46;1.80;;;1.70;;
64678;SDS011;51094;53.864;27.676;2023-02-01T03:49:31;1.83;;;1.83;;
64678;SDS011;51094;53.864;27.676;2023-02-01T03:52:02;1.70;;;1.70;;
64678;SDS011;51094;53.864;27.676;2023-02-01T03:54:33;1.95;;;1.85;;
64678;SDS011;51094;53.864;27.676;2023-02-01T03:57:03;1.63;;;1.60;;
64678;SDS011;51094;53.864;27.676;2023-02-01T03:59:43;1.83;;;1.83;;
64678;SDS011;51094;53.864;27.676;2023-02-01T04:02:11;1.58;;;1.58;;
64678;SDS011;51094;53.864;27.676;2023-02-01T04:04:42;1.90;;;1.80;;
64678;SDS011;51094;53.864;27.676;2023-02-01T04:07:12;1.80;;;1.80;;
64678;SDS011;51094;53.864;27.676;2023-02-01T04:09:39;2.03;;;1.92;;
64678;SDS011;51094;53.864;27.676;2023-02-01T04:12:06;1.80;;;1.70;;
64678;SDS011;51094;53.864;27.676;2023-02-01T04:14:33;2.30;;;2.30;;
64678;SDS011;51094;53.864;27.676;2023-02-01T04:16:59;2.35;;;2.25;;
64678;SDS011;51094;53.864;27.676;2023-02-01T04:19:26;2.83;;;2.80;;
64678;SDS011;51094;53.864;27.676;2023-02-01T04:21:53;3.50;;;3.40;;
64678;SDS011;51094;53.864;27.676;2023-02-01T04:24:20;3.05;;;2.95;;
64678;SDS011;51094;53.864;27.676;2023-02-01T04:26:47;2.40;;;2.30;;
64678;SDS011;51094;53.864;27.676;2023-02-01T04:29:13;1.98;;;1.98;;
64678;SDS011;51094;53.864;27.676;2023-02-01T04:31:40;2.50;;;2.40;;
64678;SDS011;51094;53.864;27.676;2023-02-01T04:34:07;2.80;;;2.70;;
64678;SDS011;51094;53.864;27.676;2023-02-01T04:36:34;2.47;;;2.40;;
64678;SDS011;51094;53.864;27.676;2023-02-01T04:39:00;2.38;;;2.38;;
64678;SDS011;51094;53.864;27.676;2023-02-01T04:41:27;2.88;;;2.83;;
64678;SDS011;51094;53.864;27.676;2023-02-01T04:43:55;2.90;;;2.80;;
64678;SDS011;51094;53.864;27.676;2023-02-01T04:46:22;3.30;;;3.20;;
64678;SDS011;51094;53.864;27.676;2023-02-01T04:48:49;3.10;;;3.03;;
64678;SDS011;51094;53.864;27.676;2023-02-01T04:51:16;3.40;;;3.30;;
64678;SDS011;51094;53.864;27.676;2023-02-01T04:53:44;3.72;;;3.63;;
64678;SDS011;51094;53.864;27.676;2023-02-01T04:56:11;3.45;;;3.35;;
64678;SDS011;51094;53.864;27.676;2023-02-01T04:58:38;4.72;;;4.63;;
64678;SDS011;51094;53.864;27.676;2023-02-01T05:01:05;4.07;;;3.97;;
64678;SDS011;51094;53.864;27.676;2023-02-01T05:03:33;3.85;;;3.75;;
64678;SDS011;51094;53.864;27.676;2023-02-01T05:06:00;4.35;;;4.25;;
64678;SDS011;51094;53.864;27.676;2023-02-01T05:08:27;4.40;;;4.30;;
64678;SDS011;51094;53.864;27.676;2023-02-01T05:10:55;3.85;;;3.75;;
64678;SDS011;51094;53.864;27.676;2023-02-01T05:13:22;4.63;;;4.53;;
64678;SDS011;51094;53.864;27.676;2023-02-01T05:16:07;4.50;;;4.40;;
64678;SDS011;51094;53.864;27.676;2023-02-01T05:18:34;4.80;;;4.70;;
64678;SDS011;51094;53.864;27.676;2023-02-01T05:21:00;4.32;;;4.22;;
64678;SDS011;51094;53.864;27.676;2023-02-01T05:23:28;4.60;;;4.50;;
64678;SDS011;51094;53.864;27.676;2023-02-01T05:25:58;4.50;;;4.40;;
64678;SDS011;51094;53.864;27.676;2023-02-01T05:28:27;3.50;;;3.40;;
64678;SDS011;51094;53.864;27.676;2023-02-01T05:30:54;4.20;;;4.10;;
64678;SDS011;51094;53.864;27.676;2023-02-01T05:33:21;3.70;;;3.60;;
64678;SDS011;51094;53.864;27.676;2023-02-01T05:35:48;2.90;;;2.80;;
64678;SDS011;51094;53.864;27.676;2023-02-01T05:38:16;2.60;;;2.50;;
64678;SDS011;51094;53.864;27.676;2023-02-01T05:40:43;2.80;;;2.70;;
64678;SDS011;51094;53.864;27.676;2023-02-01T05:43:16;2.78;;;2.67;;
64678;SDS011;51094;53.864;27.676;2023-02-01T05:45:42;2.50;;;2.40;;
64678;SDS011;51094;53.864;27.676;2023-02-01T05:48:09;2.50;;;2.47;;
64678;SDS011;51094;53.864;27.676;2023-02-01T05:50:36;3.00;;;2.90;;
64678;SDS011;51094;53.864;27.676;2023-02-01T05:53:07;2.83;;;2.72;;
64678;SDS011;51094;53.864;27.676;2023-02-01T05:55:34;2.58;;;2.47;;
64678;SDS011;51094;53.864;27.676;2023-02-01T05:58:02;2.58;;;2.47;;
64678;SDS011;51094;53.864;27.676;2023-02-01T06:00:30;2.83;;;2.72;;
64678;SDS011;51094;53.864;27.676;2023-02-01T06:02:58;2.95;;;2.85;;
64678;SDS011;51094;53.864;27.676;2023-02-01T06:05:25;2.53;;;2.42;;
64678;SDS011;51094;53.864;27.676;2023-02-01T06:07:52;3.00;;;2.90;;
64678;SDS011;51094;53.864;27.676;2023-02-01T06:10:19;3.33;;;3.22;;
64678;SDS011;51094;53.864;27.676;2023-02-01T06:12:48;2.90;;;2.80;;
64678;SDS011;51094;53.864;27.676;2023-02-01T06:15:14;2.80;;;2.80;;
64678;SDS011;51094;53.864;27.676;2023-02-01T06:17:45;3.13;;;3.03;;
64678;SDS011;51094;53.864;27.676;2023-02-01T06:20:13;3.25;;;3.15;;
64678;SDS011;51094;53.864;27.676;2023-02-01T06:22:41;3.65;;;3.50;;
64678;SDS011;51094;53.864;27.676;2023-02-01T06:25:08;3.30;;;3.20;;
64678;SDS011;51094;53.864;27.676;2023-02-01T06:27:36;3.30;;;3.15;;
64678;SDS011;51094;53.864;27.676;2023-02-01T06:30:04;2.85;;;2.75;;
64678;SDS011;51094;53.864;27.676;2023-02-01T06:32:33;3.45;;;3.35;;
64678;SDS011;51094;53.864;27.676;2023-02-01T06:35:00;3.40;;;3.30;;
64678;SDS011;51094;53.864;27.676;2023-02-01T06:37:27;3.28;;;3.17;;
64678;SDS011;51094;53.864;27.676;2023-02-01T06:39:55;3.20;;;3.10;;
64678;SDS011;51094;53.864;27.676;2023-02-01T06:42:22;3.10;;;3.00;;
64678;SDS011;51094;53.864;27.676;2023-02-01T06:44:49;3.70;;;3.60;;
64678;SDS011;51094;53.864;27.676;2023-02-01T06:47:19;3.17;;;3.08;;
64678;SDS011;51094;53.864;27.676;2023-02-01T06:49:46;3.67;;;3.58;;
64678;SDS011;51094;53.864;27.676;2023-02-01T06:52:13;3.30;;;3.20;;
64678;SDS011;51094;53.864;27.676;2023-02-01T06:54:40;3.55;;;3.45;;
64678;SDS011;51094;53.864;27.676;2023-02-01T06:57:07;3.65;;;3.55;;
64678;SDS011;51094;53.864;27.676;2023-02-01T06:59:33;3.58;;;3.47;;
64678;SDS011;51094;53.864;27.676;2023-02-01T07:02:00;3.67;;;3.58;;
64678;SDS011;51094;53.864;27.676;2023-02-01T07:04:27;4.00;;;3.90;;
64678;SDS011;51094;53.864;27.676;2023-02-01T07:06:53;4.43;;;4.30;;
64678;SDS011;51094;53.864;27.676;2023-02-01T07:09:20;4.40;;;4.30;;
64678;SDS011;51094;53.864;27.676;2023-02-01T07:11:47;4.20;;;4.10;;
64678;SDS011;51094;53.864;27.676;2023-02-01T07:14:14;3.53;;;3.42;;
64678;SDS011;51094;53.864;27.676;2023-02-01T07:16:41;4.07;;;3.97;;
64678;SDS011;51094;53.864;27.676;2023-02-01T07:19:07;4.40;;;4.28;;
64678;SDS011;51094;53.864;27.676;2023-02-01T07:21:34;3.72;;;3.63;;
64678;SDS011;51094;53.864;27.676;2023-02-01T07:24:01;4.22;;;4.13;;
64678;SDS011;51094;53.864;27.676;2023-02-01T07:26:28;3.70;;;3.60;;
64678;SDS011;51094;53.864;27.676;2023-02-01T07:28:55;3.72;;;3.63;;
64678;SDS011;51094;53.864;27.676;2023-02-01T07:31:22;3.90;;;3.80;;
64678;SDS011;51094;53.864;27.676;2023-02-01T07:33:49;4.07;;;3.97;;
64678;SDS011;51094;53.864;27.676;2023-02-01T07:36:19;4.68;;;4.47;;
64678;SDS011;51094;53.864;27.676;2023-02-01T07:38:46;4.20;;;4.07;;
64678;SDS011;51094;53.864;27.676;2023-02-01T07:41:13;4.20;;;4.10;;
64678;SDS011;51094;53.864;27.676;2023-02-01T07:43:41;4.43;;;4.32;;
64678;SDS011;51094;53.864;27.676;2023-02-01T07:46:08;4.00;;;3.90;;
64678;SDS011;51094;53.864;27.676;2023-02-01T07:48:36;4.00;;;3.90;;
64678;SDS011;51094;53.864;27.676;2023-02-01T07:51:04;3.90;;;3.80;;
64678;SDS011;51094;53.864;27.676;2023-02-01T07:53:41;4.30;;;4.20;;
64678;SDS011;51094;53.864;27.676;2023-02-01T07:56:19;5.05;;;4.90;;
64678;SDS011;51094;53.864;27.676;2023-02-01T08:01:18;4.30;;;4.20;;
64678;SDS011;51094;53.864;27.676;2023-02-01T08:03:48;3.97;;;3.88;;
64678;SDS011;51094;53.864;27.676;2023-02-01T08:06:15;4.50;;;4.40;;
64678;SDS011;51094;53.864;27.676;2023-02-01T08:08:42;4.13;;;4.03;;
64678;SDS011;51094;53.864;27.676;2023-02-01T08:11:11;4.47;;;4.38;;
64678;SDS011;51094;53.864;27.676;2023-02-01T08:13:38;4.30;;;4.20;;
64678;SDS011;51094;53.864;27.676;2023-02-01T08:16:06;4.53;;;4.43;;
64678;SDS011;51094;53.864;27.676;2023-02-01T08:18:35;4.25;;;4.15;;
64678;SDS011;51094;53.864;27.676;2023-02-01T08:21:08;4.35;;;4.25;;
64678;SDS011;51094;53.864;27.676;2023-02-01T08:23:37;5.28;;;5.18;;
64678;SDS011;51094;53.864;27.676;2023-02-01T08:26:06;7.00;;;6.80;;
64678;SDS011;51094;53.864;27.676;2023-02-01T08:29:01;6.05;;;5.85;;
64678;SDS011;51094;53.864;27.676;2023-02-01T08:31:29;6.68;;;6.47;;
64678;SDS011;51094;53.864;27.676;2023-02-01T08:33:58;12.98;;;12.57;;
64678;SDS011;51094;53.864;27.676;2023-02-01T08:36:27;14.23;;;13.83;;
64678;SDS011;51094;53.864;27.676;2023-02-01T08:38:56;10.70;;;10.40;;
64678;SDS011;51094;53.864;27.676;2023-02-01T08:41:24;8.02;;;7.82;;
64678;SDS011;51094;53.864;27.676;2023-02-01T08:43:52;6.20;;;6.00;;
64678;SDS011;51094;53.864;27.676;2023-02-01T08:46:20;5.07;;;4.97;;
64678;SDS011;51094;53.864;27.676;2023-02-01T08:48:49;5.00;;;4.90;;
64678;SDS011;51094;53.864;27.676;2023-02-01T08:51:17;4.50;;;4.40;;
64678;SDS011;51094;53.864;27.676;2023-02-01T08:53:45;4.60;;;4.50;;
64678;SDS011;51094;53.864;27.676;2023-02-01T08:56:13;4.50;;;4.40;;
64678;SDS011;51094;53.864;27.676;2023-02-01T08:58:41;4.72;;;4.63;;
64678;SDS011;51094;53.864;27.676;2023-02-01T09:01:09;4.40;;;4.30;;
64678;SDS011;51094;53.864;27.676;2023-02-01T09:03:38;4.40;;;4.30;;
64678;SDS011;51094;53.864;27.676;2023-02-01T09:06:07;4.70;;;4.60;;
64678;SDS011;51094;53.864;27.676;2023-02-01T09:08:36;4.05;;;3.95;;
64678;SDS011;51094;53.864;27.676;2023-02-01T09:11:05;4.28;;;4.18;;
64678;SDS011;51094;53.864;27.676;2023-02-01T09:13:35;4.13;;;4.03;;
64678;SDS011;51094;53.864;27.676;2023-02-01T09:16:03;3.95;;;3.85;;
64678;SDS011;51094;53.864;27.676;2023-02-01T09:18:30;4.25;;;4.15;;
64678;SDS011;51094;53.864;27.676;2023-02-01T09:20:59;4.47;;;4.38;;
64678;SDS011;51094;53.864;27.676;2023-02-01T09:23:26;4.40;;;4.30;;
64678;SDS011;51094;53.864;27.676;2023-02-01T09:25:53;4.38;;;4.28;;
64678;SDS011;51094;53.864;27.676;2023-02-01T09:28:20;4.30;;;4.20;;
64678;SDS011;51094;53.864;27.676;2023-02-01T09:30:47;4.32;;;4.22;;
64678;SDS011;51094;53.864;27.676;2023-02-01T09:33:14;4.40;;;4.30;;
64678;SDS011;51094;53.864;27.676;2023-02-01T09:35:41;4.00;;;3.90;;
64678;SDS011;51094;53.864;27.676;2023-02-01T09:38:07;3.88;;;3.78;;
64678;SDS011;51094;53.864;27.676;2023-02-01T09:40:34;3.90;;;3.80;;
64678;SDS011;51094;53.864;27.676;2023-02-01T09:43:19;3.92;;;3.83;;
64678;SDS011;51094;53.864;27.676;2023-02-01T09:48:41;3.53;;;3.42;;
64678;SDS011;51094;53.864;27.676;2023-02-01T09:51:13;3.30;;;3.20;;
64678;SDS011;51094;53.864;27.676;2023-02-01T09:53:46;3.60;;;3.50;;
64678;SDS011;51094;53.864;27.676;2023-02-01T09:56:23;3.80;;;3.70;;
64678;SDS011;51094;53.864;27.676;2023-02-01T10:01:53;4.22;;;4.13;;
64678;SDS011;51094;53.864;27.676;2023-02-01T10:04:20;3.70;;;3.60;;
64678;SDS011;51094;53.864;27.676;2023-02-01T10:09:52;3.38;;;3.28;;
64678;SDS011;51094;53.864;27.676;2023-02-01T10:15:25;3.45;;;3.35;;
64678;SDS011;51094;53.864;27.676;2023-02-01T10:23:42;3.50;;;3.40;;
64678;SDS011;51094;53.864;27.676;2023-02-01T10:26:27;3.45;;;3.45;;
64678;SDS011;51094;53.864;27.676;2023-02-01T10:29:16;3.40;;;3.30;;
64678;SDS011;51094;53.864;27.676;2023-02-01T10:31:46;3.25;;;3.25;;
64678;SDS011;51094;53.864;27.676;2023-02-01T10:34:21;3.25;;;3.25;;
64678;SDS011;51094;53.864;27.676;2023-02-01T10:36:56;3.58;;;3.47;;
64678;SDS011;51094;53.864;27.676;2023-02-01T10:39:26;3.45;;;3.40;;
64678;SDS011;51094;53.864;27.676;2023-02-01T10:41:54;3.20;;;3.20;;
64678;SDS011;51094;53.864;27.676;2023-02-01T10:44:26;3.75;;;3.65;;
64678;SDS011;51094;53.864;27.676;2023-02-01T10:46:56;4.00;;;3.90;;
64678;SDS011;51094;53.864;27.676;2023-02-01T10:49:31;3.80;;;3.70;;
64678;SDS011;51094;53.864;27.676;2023-02-01T10:52:14;3.67;;;3.67;;
64678;SDS011;51094;53.864;27.676;2023-02-01T10:58:01;4.53;;;4.43;;
64678;SDS011;51094;53.864;27.676;2023-02-01T11:03:39;4.13;;;4.03;;
64678;SDS011;51094;53.864;27.676;2023-02-01T11:08:57;3.70;;;3.60;;
64678;SDS011;51094;53.864;27.676;2023-02-01T11:11:26;3.60;;;3.58;;
64678;SDS011;51094;53.864;27.676;2023-02-01T11:13:58;3.30;;;3.30;;
64678;SDS011;51094;53.864;27.676;2023-02-01T11:16:37;3.90;;;3.80;;
64678;SDS011;51094;53.864;27.676;2023-02-01T11:19:05;3.70;;;3.60;;
64678;SDS011;51094;53.864;27.676;2023-02-01T11:21:33;4.43;;;4.32;;
64678;SDS011;51094;53.864;27.676;2023-02-01T11:24:03;4.05;;;3.95;;
64678;SDS011;51094;53.864;27.676;2023-02-01T11:26:33;3.75;;;3.75;;
64678;SDS011;51094;53.864;27.676;2023-02-01T11:29:04;3.55;;;3.55;;
64678;SDS011;51094;53.864;27.676;2023-02-01T11:31:36;3.22;;;3.22;;
64678;SDS011;51094;53.864;27.676;2023-02-01T11:34:23;3.65;;;3.60;;
64678;SDS011;51094;53.864;27.676;2023-02-01T11:36:53;3.67;;;3.65;;
64678;SDS011;51094;53.864;27.676;2023-02-01T11:39:25;3.60;;;3.60;;
64678;SDS011;51094;53.864;27.676;2023-02-01T11:44:37;3.90;;;3.90;;
64678;SDS011;51094;53.864;27.676;2023-02-01T11:49:48;3.83;;;3.72;;
64678;SDS011;51094;53.864;27.676;2023-02-01T12:12:13;2.78;;;2.78;;
64678;SDS011;51094;53.864;27.676;2023-02-01T12:25:26;2.60;;;2.60;;
64678;SDS011;51094;53.864;27.676;2023-02-01T12:28:39;2.60;;;2.60;;
64678;SDS011;51094;53.864;27.676;2023-02-01T12:36:42;2.40;;;2.40;;
64678;SDS011;51094;53.864;27.676;2023-02-01T12:39:31;2.70;;;2.70;;
64678;SDS011;51094;53.864;27.676;2023-02-01T12:44:44;2.92;;;2.92;;
64678;SDS011;51094;53.864;27.676;2023-02-01T12:47:22;2.80;;;2.80;;
64678;SDS011;51094;53.864;27.676;2023-02-01T12:49:53;3.10;;;3.10;;
64678;SDS011;51094;53.864;27.676;2023-02-01T12:52:36;3.08;;;3.08;;
64678;SDS011;51094;53.864;27.676;2023-02-01T12:58:06;3.63;;;3.63;;
64678;SDS011;51094;53.864;27.676;2023-02-01T13:00:44;3.30;;;3.30;;
64678;SDS011;51094;53.864;27.676;2023-02-01T13:03:27;3.08;;;3.08;;
64678;SDS011;51094;53.864;27.676;2023-02-01T13:06:04;2.45;;;2.45;;
64678;SDS011;51094;53.864;27.676;2023-02-01T13:08:57;2.17;;;2.17;;
64678;SDS011;51094;53.864;27.676;2023-02-01T13:11:33;2.10;;;2.10;;
64678;SDS011;51094;53.864;27.676;2023-02-01T13:14:04;2.03;;;2.03;;
64678;SDS011;51094;53.864;27.676;2023-02-01T13:16:45;2.10;;;2.10;;
64678;SDS011;51094;53.864;27.676;2023-02-01T13:19:27;2.03;;;2.03;;
64678;SDS011;51094;53.864;27.676;2023-02-01T13:22:02;1.90;;;1.90;;
64678;SDS011;51094;53.864;27.676;2023-02-01T13:27:37;1.85;;;1.85;;
64678;SDS011;51094;53.864;27.676;2023-02-01T13:30:06;2.22;;;2.22;;
64678;SDS011;51094;53.864;27.676;2023-02-01T13:42:00;1.70;;;1.70;;
64678;SDS011;51094;53.864;27.676;2023-02-01T13:44:44;1.77;;;1.77;;
64678;SDS011;51094;53.864;27.676;2023-02-01T13:47:32;1.50;;;1.50;;
64678;SDS011;51094;53.864;27.676;2023-02-01T13:50:03;1.80;;;1.80;;
64678;SDS011;51094;53.864;27.676;2023-02-01T13:52:42;1.60;;;1.60;;
64678;SDS011;51094;53.864;27.676;2023-02-01T13:57:48;1.80;;;1.80;;
64678;SDS011;51094;53.864;27.676;2023-02-01T14:23:57;1.80;;;1.80;;
64678;SDS011;51094;53.864;27.676;2023-02-01T14:26:43;1.70;;;1.70;;
64678;SDS011;51094;53.864;27.676;2023-02-01T14:32:00;1.98;;;1.98;;
64678;SDS011;51094;53.864;27.676;2023-02-01T14:45:45;1.80;;;1.80;;
64678;SDS011;51094;53.864;27.676;2023-02-01T14:47:46;1.88;;;1.88;;
64678;SDS011;51094;53.864;27.676;2023-02-01T15:06:25;2.10;;;2.10;;
64678;SDS011;51094;53.864;27.676;2023-02-01T15:09:24;1.75;;;1.75;;
64678;SDS011;51094;53.864;27.676;2023-02-01T15:12:00;2.08;;;2.08;;
64678;SDS011;51094;53.864;27.676;2023-02-01T15:14:31;2.08;;;2.08;;
64678;SDS011;51094;53.864;27.676;2023-02-01T15:17:00;1.85;;;1.85;;
64678;SDS011;51094;53.864;27.676;2023-02-01T15:19:29;2.10;;;2.10;;
64678;SDS011;51094;53.864;27.676;2023-02-01T15:21:57;2.10;;;2.10;;
64678;SDS011;51094;53.864;27.676;2023-02-01T15:24:26;2.30;;;2.30;;
64678;SDS011;51094;53.864;27.676;2023-02-01T15:26:55;2.42;;;2.42;;
64678;SDS011;51094;53.864;27.676;2023-02-01T15:29:30;2.30;;;2.30;;
64678;SDS011;51094;53.864;27.676;2023-02-01T15:31:59;2.00;;;2.00;;
64678;SDS011;51094;53.864;27.676;2023-02-01T15:34:46;2.20;;;2.20;;
64678;SDS011;51094;53.864;27.676;2023-02-01T15:37:15;2.50;;;2.50;;
64678;SDS011;51094;53.864;27.676;2023-02-01T15:42:33;2.20;;;2.20;;
64678;SDS011;51094;53.864;27.676;2023-02-01T15:45:01;2.33;;;2.33;;
64678;SDS011;51094;53.864;27.676;2023-02-01T15:47:28;2.42;;;2.42;;
64678;SDS011;51094;53.864;27.676;2023-02-01T15:49:58;2.63;;;2.63;;
64678;SDS011;51094;53.864;27.676;2023-02-01T15:52:30;2.33;;;2.33;;
64678;SDS011;51094;53.864;27.676;2023-02-01T15:55:03;2.78;;;2.70;;
64678;SDS011;51094;53.864;27.676;2023-02-01T15:57:38;2.90;;;2.90;;
64678;SDS011;51094;53.864;27.676;2023-02-01T16:00:08;2.95;;;2.95;;
64678;SDS011;51094;53.864;27.676;2023-02-01T16:02:56;2.40;;;2.40;;
64678;SDS011;51094;53.864;27.676;2023-02-01T16:05:34;2.70;;;2.70;;
64678;SDS011;51094;53.864;27.676;2023-02-01T16:08:21;2.53;;;2.53;;
64678;SDS011;51094;53.864;27.676;2023-02-01T16:10:51;3.60;;;3.50;;
64678;SDS011;51094;53.864;27.676;2023-02-01T16:13:20;2.67;;;2.60;;
64678;SDS011;51094;53.864;27.676;2023-02-01T16:15:47;2.47;;;2.40;;
64678;SDS011;51094;53.864;27.676;2023-02-01T16:18:15;2.50;;;2.50;;
64678;SDS011;51094;53.864;27.676;2023-02-01T16:20:44;2.72;;;2.65;;
64678;SDS011;51094;53.864;27.676;2023-02-01T16:23:11;2.90;;;2.83;;
64678;SDS011;51094;53.864;27.676;2023-02-01T16:25:39;2.80;;;2.70;;
64678;SDS011;51094;53.864;27.676;2023-02-01T16:28:06;2.58;;;2.58;;
64678;SDS011;51094;53.864;27.676;2023-02-01T16:30:34;2.70;;;2.60;;
64678;SDS011;51094;53.864;27.676;2023-02-01T16:33:02;2.97;;;2.97;;
64678;SDS011;51094;53.864;27.676;2023-02-01T16:35:32;2.42;;;2.42;;
64678;SDS011;51094;53.864;27.676;2023-02-01T16:38:04;2.40;;;2.40;;
64678;SDS011;51094;53.864;27.676;2023-02-01T16:40:40;2.50;;;2.50;;
64678;SDS011;51094;53.864;27.676;2023-02-01T16:43:12;2.90;;;2.90;;
64678;SDS011;51094;53.864;27.676;2023-02-01T16:45:40;2.83;;;2.80;;
64678;SDS011;51094;53.864;27.676;2023-02-01T16:48:12;2.75;;;2.75;;
64678;SDS011;51094;53.864;27.676;2023-02-01T16:50:52;2.90;;;2.90;;
64678;SDS011;51094;53.864;27.676;2023-02-01T16:53:22;2.47;;;2.47;;
64678;SDS011;51094;53.864;27.676;2023-02-01T16:55:50;2.53;;;2.53;;
64678;SDS011;51094;53.864;27.676;2023-02-01T16:58:19;2.03;;;2.03;;
64678;SDS011;51094;53.864;27.676;2023-02-01T17:00:47;2.40;;;2.40;;
64678;SDS011;51094;53.864;27.676;2023-02-01T17:03:14;2.40;;;2.40;;
64678;SDS011;51094;53.864;27.676;2023-02-01T17:05:48;2.83;;;2.83;;
64678;SDS011;51094;53.864;27.676;2023-02-01T17:08:27;2.70;;;2.70;;
64678;SDS011;51094;53.864;27.676;2023-02-01T17:11:13;2.42;;;2.42;;
64678;SDS011;51094;53.864;27.676;2023-02-01T17:13:46;2.20;;;2.20;;
64678;SDS011;51094;53.864;27.676;2023-02-01T17:18:51;2.30;;;2.30;;
64678;SDS011;51094;53.864;27.676;2023-02-01T17:21:29;2.30;;;2.30;;
64678;SDS011;51094;53.864;27.676;2023-02-01T17:24:01;2.05;;;2.05;;
64678;SDS011;51094;53.864;27.676;2023-02-01T17:26:28;2.05;;;2.05;;
64678;SDS011;51094;53.864;27.676;2023-02-01T17:28:55;2.00;;;2.00;;
64678;SDS011;51094;53.864;27.676;2023-02-01T17:31:25;2.08;;;2.08;;
64678;SDS011;51094;53.864;27.676;2023-02-01T17:33:55;2.17;;;2.17;;
64678;SDS011;51094;53.864;27.676;2023-02-01T17:36:22;2.17;;;2.17;;
64678;SDS011;51094;53.864;27.676;2023-02-01T17:38:50;2.10;;;2.10;;
64678;SDS011;51094;53.864;27.676;2023-02-01T17:41:30;2.10;;;2.10;;
64678;SDS011;51094;53.864;27.676;2023-02-01T17:44:03;1.95;;;1.95;;
64678;SDS011;51094;53.864;27.676;2023-02-01T17:46:31;2.00;;;2.00;;
64678;SDS011;51094;53.864;27.676;2023-02-01T17:48:58;1.85;;;1.85;;
64678;SDS011;51094;53.864;27.676;2023-02-01T17:51:26;1.67;;;1.67;;
64678;SDS011;51094;53.864;27.676;2023-02-01T17:53:54;2.10;;;2.10;;
64678;SDS011;51094;53.864;27.676;2023-02-01T17:56:22;1.98;;;1.98;;
64678;SDS011;51094;53.864;27.676;2023-02-01T17:58:50;1.80;;;1.80;;
64678;SDS011;51094;53.864;27.676;2023-02-01T18:01:18;1.60;;;1.60;;